sensor_id;sensor_type;location;lat;lon;timestamp;P1;durP1;ratioP1;P2;durP2;ratioP2
33188;SDS011;52601;53.070;10.600;2023-08-21T00:02:45;10.82;;;3.95;;
33188;SDS011;52601;53.070;10.600;2023-08-21T00:05:31;8.93;;;4.45;;
33188;SDS011;52601;53.070;10.600;2023-08-21T00:08:16;8.18;;;4.22;;
33188;SDS011;52601;53.070;10.600;2023-08-21T00:11:02;7.73;;;3.93;;
33188;SDS011;52601;53.070;10.600;2023-08-21T00:13:48;11.98;;;4.72;;
33188;SDS011;52601;53.070;10.600;2023-08-21T00:16:34;7.65;;;4.53;;
33188;SDS011;52601;53.070;10.600;2023-08-21T00:19:20;11.60;;;4.13;;
33188;SDS011;52601;53.070;10.600;2023-08-21T00:22:05;6.85;;;4.70;;
33188;SDS011;52601;53.070;10.600;2023-08-21T00:24:51;10.67;;;4.90;;
33188;SDS011;52601;53.070;10.600;2023-08-21T00:27:37;11.60;;;4.10;;
33188;SDS011;52601;53.070;10.600;2023-08-21T00:30:22;11.43;;;4.93;;
33188;SDS011;52601;53.070;10.600;2023-08-21T00:33:08;9.37;;;4.70;;
33188;SDS011;52601;53.070;10.600;2023-08-21T00:35:54;8.15;;;4.28;;
33188;SDS011;52601;53.070;10.600;2023-08-21T00:38:39;10.50;;;4.07;;
33188;SDS011;52601;53.070;10.600;2023-08-21T00:41:25;10.57;;;5.67;;
33188;SDS011;52601;53.070;10.600;2023-08-21T00:44:11;6.30;;;3.73;;
33188;SDS011;52601;53.070;10.600;2023-08-21T00:46:56;5.68;;;3.53;;
33188;SDS011;52601;53.070;10.600;2023-08-21T00:49:42;10.43;;;4.25;;
33188;SDS011;52601;53.070;10.600;2023-08-21T00:52:28;10.80;;;3.85;;
33188;SDS011;52601;53.070;10.600;2023-08-21T00:55:13;13.95;;;4.25;;
33188;SDS011;52601;53.070;10.600;2023-08-21T00:58:00;5.78;;;3.78;;
33188;SDS011;52601;53.070;10.600;2023-08-21T01:00:47;14.82;;;4.75;;
33188;SDS011;52601;53.070;10.600;2023-08-21T01:03:35;6.63;;;4.18;;
33188;SDS011;52601;53.070;10.600;2023-08-21T01:06:20;9.27;;;4.40;;
33188;SDS011;52601;53.070;10.600;2023-08-21T01:09:15;6.53;;;3.87;;
33188;SDS011;52601;53.070;10.600;2023-08-21T01:12:12;9.52;;;4.60;;
33188;SDS011;52601;53.070;10.600;2023-08-21T01:15:22;6.95;;;4.40;;
33188;SDS011;52601;53.070;10.600;2023-08-21T01:18:08;6.55;;;4.22;;
33188;SDS011;52601;53.070;10.600;2023-08-21T01:20:54;7.13;;;4.53;;
33188;SDS011;52601;53.070;10.600;2023-08-21T01:23:42;7.97;;;4.35;;
33188;SDS011;52601;53.070;10.600;2023-08-21T01:29:14;6.22;;;3.88;;
33188;SDS011;52601;53.070;10.600;2023-08-21T01:34:50;6.05;;;4.13;;
33188;SDS011;52601;53.070;10.600;2023-08-21T01:37:40;6.00;;;4.00;;
33188;SDS011;52601;53.070;10.600;2023-08-21T01:40:26;9.80;;;4.55;;
33188;SDS011;52601;53.070;10.600;2023-08-21T01:43:12;6.90;;;4.80;;
33188;SDS011;52601;53.070;10.600;2023-08-21T01:45:57;9.13;;;4.60;;
33188;SDS011;52601;53.070;10.600;2023-08-21T01:48:43;9.77;;;3.65;;
33188;SDS011;52601;53.070;10.600;2023-08-21T01:51:28;4.85;;;4.03;;
33188;SDS011;52601;53.070;10.600;2023-08-21T01:54:14;6.90;;;4.45;;
33188;SDS011;52601;53.070;10.600;2023-08-21T01:57:00;4.40;;;3.87;;
33188;SDS011;52601;53.070;10.600;2023-08-21T01:59:45;5.55;;;4.30;;
33188;SDS011;52601;53.070;10.600;2023-08-21T02:02:31;6.93;;;4.53;;
33188;SDS011;52601;53.070;10.600;2023-08-21T02:05:16;12.47;;;4.50;;
33188;SDS011;52601;53.070;10.600;2023-08-21T02:08:02;8.30;;;4.67;;
33188;SDS011;52601;53.070;10.600;2023-08-21T02:10:51;5.70;;;4.28;;
33188;SDS011;52601;53.070;10.600;2023-08-21T02:13:37;10.23;;;4.57;;
33188;SDS011;52601;53.070;10.600;2023-08-21T02:16:22;8.13;;;4.50;;
33188;SDS011;52601;53.070;10.600;2023-08-21T02:19:08;6.90;;;4.57;;
33188;SDS011;52601;53.070;10.600;2023-08-21T02:21:54;8.27;;;4.27;;
33188;SDS011;52601;53.070;10.600;2023-08-21T02:24:39;10.55;;;4.75;;
33188;SDS011;52601;53.070;10.600;2023-08-21T02:27:25;6.23;;;4.10;;
33188;SDS011;52601;53.070;10.600;2023-08-21T02:30:11;8.85;;;5.03;;
33188;SDS011;52601;53.070;10.600;2023-08-21T02:32:57;17.02;;;5.22;;
33188;SDS011;52601;53.070;10.600;2023-08-21T02:35:42;7.20;;;4.50;;
33188;SDS011;52601;53.070;10.600;2023-08-21T02:38:27;7.72;;;4.63;;
33188;SDS011;52601;53.070;10.600;2023-08-21T02:41:13;7.55;;;3.92;;
33188;SDS011;52601;53.070;10.600;2023-08-21T02:44:02;5.15;;;4.28;;
33188;SDS011;52601;53.070;10.600;2023-08-21T02:46:47;6.07;;;3.35;;
33188;SDS011;52601;53.070;10.600;2023-08-21T02:49:33;10.75;;;4.40;;
33188;SDS011;52601;53.070;10.600;2023-08-21T02:52:18;5.85;;;4.13;;
33188;SDS011;52601;53.070;10.600;2023-08-21T02:55:05;5.80;;;3.90;;
33188;SDS011;52601;53.070;10.600;2023-08-21T02:57:51;7.28;;;4.30;;
33188;SDS011;52601;53.070;10.600;2023-08-21T03:00:36;6.28;;;5.00;;
33188;SDS011;52601;53.070;10.600;2023-08-21T03:03:23;5.70;;;3.85;;
33188;SDS011;52601;53.070;10.600;2023-08-21T03:06:08;6.32;;;4.43;;
33188;SDS011;52601;53.070;10.600;2023-08-21T03:08:54;11.50;;;4.53;;
33188;SDS011;52601;53.070;10.600;2023-08-21T03:11:39;5.07;;;3.67;;
33188;SDS011;52601;53.070;10.600;2023-08-21T03:14:26;6.38;;;3.65;;
33188;SDS011;52601;53.070;10.600;2023-08-21T03:17:12;7.63;;;4.32;;
33188;SDS011;52601;53.070;10.600;2023-08-21T03:19:58;5.77;;;4.07;;
33188;SDS011;52601;53.070;10.600;2023-08-21T03:22:44;5.50;;;4.00;;
33188;SDS011;52601;53.070;10.600;2023-08-21T03:25:29;5.67;;;4.17;;
33188;SDS011;52601;53.070;10.600;2023-08-21T03:28:15;7.65;;;3.50;;
33188;SDS011;52601;53.070;10.600;2023-08-21T03:31:00;5.80;;;3.72;;
33188;SDS011;52601;53.070;10.600;2023-08-21T03:33:46;5.22;;;3.67;;
33188;SDS011;52601;53.070;10.600;2023-08-21T03:36:32;9.43;;;3.90;;
33188;SDS011;52601;53.070;10.600;2023-08-21T03:39:18;6.43;;;3.90;;
33188;SDS011;52601;53.070;10.600;2023-08-21T03:42:03;10.05;;;3.72;;
33188;SDS011;52601;53.070;10.600;2023-08-21T03:44:49;7.60;;;4.47;;
33188;SDS011;52601;53.070;10.600;2023-08-21T03:47:35;8.13;;;4.03;;
33188;SDS011;52601;53.070;10.600;2023-08-21T03:50:21;7.00;;;4.45;;
33188;SDS011;52601;53.070;10.600;2023-08-21T03:53:07;6.15;;;4.13;;
33188;SDS011;52601;53.070;10.600;2023-08-21T03:55:52;8.47;;;3.73;;
33188;SDS011;52601;53.070;10.600;2023-08-21T03:58:38;6.00;;;3.70;;
33188;SDS011;52601;53.070;10.600;2023-08-21T04:01:24;8.38;;;4.47;;
33188;SDS011;52601;53.070;10.600;2023-08-21T04:04:09;6.55;;;4.10;;
33188;SDS011;52601;53.070;10.600;2023-08-21T04:06:55;7.60;;;3.47;;
33188;SDS011;52601;53.070;10.600;2023-08-21T04:09:40;9.20;;;3.97;;
33188;SDS011;52601;53.070;10.600;2023-08-21T04:12:26;7.15;;;3.97;;
33188;SDS011;52601;53.070;10.600;2023-08-21T04:15:11;8.07;;;4.40;;
33188;SDS011;52601;53.070;10.600;2023-08-21T04:17:57;5.00;;;3.97;;
33188;SDS011;52601;53.070;10.600;2023-08-21T04:20:42;5.65;;;3.53;;
33188;SDS011;52601;53.070;10.600;2023-08-21T04:23:28;7.40;;;5.20;;
33188;SDS011;52601;53.070;10.600;2023-08-21T04:26:13;11.20;;;6.10;;
33188;SDS011;52601;53.070;10.600;2023-08-21T04:28:59;10.05;;;6.18;;
33188;SDS011;52601;53.070;10.600;2023-08-21T04:31:44;8.32;;;6.15;;
33188;SDS011;52601;53.070;10.600;2023-08-21T04:34:31;8.30;;;4.97;;
33188;SDS011;52601;53.070;10.600;2023-08-21T04:37:17;8.63;;;5.00;;
33188;SDS011;52601;53.070;10.600;2023-08-21T04:40:03;10.70;;;4.30;;
33188;SDS011;52601;53.070;10.600;2023-08-21T04:42:49;7.13;;;3.58;;
33188;SDS011;52601;53.070;10.600;2023-08-21T04:45:35;6.47;;;3.60;;
33188;SDS011;52601;53.070;10.600;2023-08-21T04:48:22;4.95;;;3.40;;
33188;SDS011;52601;53.070;10.600;2023-08-21T04:51:08;10.75;;;4.32;;
33188;SDS011;52601;53.070;10.600;2023-08-21T04:53:54;8.60;;;3.37;;
33188;SDS011;52601;53.070;10.600;2023-08-21T04:56:39;5.40;;;2.88;;
33188;SDS011;52601;53.070;10.600;2023-08-21T04:59:24;6.25;;;3.22;;
33188;SDS011;52601;53.070;10.600;2023-08-21T05:02:10;4.68;;;3.15;;
33188;SDS011;52601;53.070;10.600;2023-08-21T05:04:55;5.47;;;3.33;;
33188;SDS011;52601;53.070;10.600;2023-08-21T05:07:41;5.50;;;2.85;;
33188;SDS011;52601;53.070;10.600;2023-08-21T05:10:27;5.67;;;3.03;;
33188;SDS011;52601;53.070;10.600;2023-08-21T05:13:13;6.30;;;3.08;;
33188;SDS011;52601;53.070;10.600;2023-08-21T05:16:02;5.90;;;3.40;;
33188;SDS011;52601;53.070;10.600;2023-08-21T05:18:47;7.78;;;3.25;;
33188;SDS011;52601;53.070;10.600;2023-08-21T05:21:33;6.68;;;2.95;;
33188;SDS011;52601;53.070;10.600;2023-08-21T05:24:18;6.43;;;3.72;;
33188;SDS011;52601;53.070;10.600;2023-08-21T05:27:04;7.20;;;4.13;;
33188;SDS011;52601;53.070;10.600;2023-08-21T05:29:50;6.50;;;4.00;;
33188;SDS011;52601;53.070;10.600;2023-08-21T05:35:21;6.53;;;3.95;;
33188;SDS011;52601;53.070;10.600;2023-08-21T05:38:07;7.93;;;4.43;;
33188;SDS011;52601;53.070;10.600;2023-08-21T05:40:52;7.70;;;4.00;;
33188;SDS011;52601;53.070;10.600;2023-08-21T05:43:38;5.97;;;3.47;;
33188;SDS011;52601;53.070;10.600;2023-08-21T05:46:24;5.68;;;3.47;;
33188;SDS011;52601;53.070;10.600;2023-08-21T05:49:12;9.00;;;3.25;;
33188;SDS011;52601;53.070;10.600;2023-08-21T05:51:58;6.63;;;3.00;;
33188;SDS011;52601;53.070;10.600;2023-08-21T05:54:44;6.38;;;3.22;;
33188;SDS011;52601;53.070;10.600;2023-08-21T05:57:29;6.03;;;2.15;;
33188;SDS011;52601;53.070;10.600;2023-08-21T06:00:15;6.32;;;2.90;;
33188;SDS011;52601;53.070;10.600;2023-08-21T06:03:01;4.45;;;2.50;;
33188;SDS011;52601;53.070;10.600;2023-08-21T06:05:47;5.82;;;2.38;;
33188;SDS011;52601;53.070;10.600;2023-08-21T06:08:33;5.43;;;1.88;;
33188;SDS011;52601;53.070;10.600;2023-08-21T06:11:18;5.07;;;2.67;;
33188;SDS011;52601;53.070;10.600;2023-08-21T06:14:04;5.45;;;2.60;;
33188;SDS011;52601;53.070;10.600;2023-08-21T06:16:50;7.07;;;2.20;;
33188;SDS011;52601;53.070;10.600;2023-08-21T06:19:35;6.15;;;2.13;;
33188;SDS011;52601;53.070;10.600;2023-08-21T06:22:21;5.97;;;2.20;;
33188;SDS011;52601;53.070;10.600;2023-08-21T06:25:08;4.88;;;1.90;;
33188;SDS011;52601;53.070;10.600;2023-08-21T06:27:53;5.38;;;1.90;;
33188;SDS011;52601;53.070;10.600;2023-08-21T06:30:44;6.28;;;2.30;;
33188;SDS011;52601;53.070;10.600;2023-08-21T06:33:29;5.88;;;1.98;;
33188;SDS011;52601;53.070;10.600;2023-08-21T06:36:15;5.03;;;1.95;;
33188;SDS011;52601;53.070;10.600;2023-08-21T06:39:00;4.83;;;1.80;;
33188;SDS011;52601;53.070;10.600;2023-08-21T06:41:46;7.93;;;2.25;;
33188;SDS011;52601;53.070;10.600;2023-08-21T06:44:31;5.40;;;1.98;;
33188;SDS011;52601;53.070;10.600;2023-08-21T06:47:17;3.17;;;1.65;;
33188;SDS011;52601;53.070;10.600;2023-08-21T06:50:02;3.70;;;1.55;;
33188;SDS011;52601;53.070;10.600;2023-08-21T06:52:48;8.38;;;1.70;;
33188;SDS011;52601;53.070;10.600;2023-08-21T06:55:34;2.40;;;1.30;;
33188;SDS011;52601;53.070;10.600;2023-08-21T06:58:20;5.43;;;1.25;;
33188;SDS011;52601;53.070;10.600;2023-08-21T07:01:06;2.30;;;1.30;;
33188;SDS011;52601;53.070;10.600;2023-08-21T07:03:51;5.20;;;1.40;;
33188;SDS011;52601;53.070;10.600;2023-08-21T07:06:37;3.78;;;1.58;;
33188;SDS011;52601;53.070;10.600;2023-08-21T07:09:23;5.50;;;1.33;;
33188;SDS011;52601;53.070;10.600;2023-08-21T07:12:08;4.38;;;1.63;;
33188;SDS011;52601;53.070;10.600;2023-08-21T07:14:54;4.40;;;1.85;;
33188;SDS011;52601;53.070;10.600;2023-08-21T07:17:39;2.30;;;1.02;;
33188;SDS011;52601;53.070;10.600;2023-08-21T07:20:25;4.20;;;1.40;;
33188;SDS011;52601;53.070;10.600;2023-08-21T07:23:10;12.65;;;1.33;;
33188;SDS011;52601;53.070;10.600;2023-08-21T07:25:57;3.50;;;1.10;;
33188;SDS011;52601;53.070;10.600;2023-08-21T07:28:42;3.38;;;1.25;;
33188;SDS011;52601;53.070;10.600;2023-08-21T07:31:28;4.68;;;1.42;;
33188;SDS011;52601;53.070;10.600;2023-08-21T07:34:14;8.00;;;1.35;;
33188;SDS011;52601;53.070;10.600;2023-08-21T07:36:59;4.13;;;1.50;;
33188;SDS011;52601;53.070;10.600;2023-08-21T07:39:44;4.10;;;1.10;;
33188;SDS011;52601;53.070;10.600;2023-08-21T07:42:30;17.73;;;3.65;;
33188;SDS011;52601;53.070;10.600;2023-08-21T07:45:15;9.35;;;2.13;;
33188;SDS011;52601;53.070;10.600;2023-08-21T07:48:01;4.05;;;1.30;;
33188;SDS011;52601;53.070;10.600;2023-08-21T07:50:59;6.43;;;1.40;;
33188;SDS011;52601;53.070;10.600;2023-08-21T07:53:45;4.90;;;1.08;;
33188;SDS011;52601;53.070;10.600;2023-08-21T07:56:30;5.47;;;1.23;;
33188;SDS011;52601;53.070;10.600;2023-08-21T07:59:16;5.70;;;1.30;;
33188;SDS011;52601;53.070;10.600;2023-08-21T08:02:02;4.28;;;1.42;;
33188;SDS011;52601;53.070;10.600;2023-08-21T08:04:48;7.03;;;1.30;;
33188;SDS011;52601;53.070;10.600;2023-08-21T08:10:19;3.28;;;1.17;;
33188;SDS011;52601;53.070;10.600;2023-08-21T08:13:06;5.10;;;1.55;;
33188;SDS011;52601;53.070;10.600;2023-08-21T08:15:52;4.45;;;1.08;;
33188;SDS011;52601;53.070;10.600;2023-08-21T08:18:37;5.63;;;1.92;;
33188;SDS011;52601;53.070;10.600;2023-08-21T08:21:23;3.35;;;1.35;;
33188;SDS011;52601;53.070;10.600;2023-08-21T08:26:54;5.03;;;1.10;;
33188;SDS011;52601;53.070;10.600;2023-08-21T08:32:25;5.07;;;1.65;;
33188;SDS011;52601;53.070;10.600;2023-08-21T08:35:12;7.68;;;1.60;;
33188;SDS011;52601;53.070;10.600;2023-08-21T08:37:58;5.43;;;1.33;;
33188;SDS011;52601;53.070;10.600;2023-08-21T08:40:45;3.88;;;1.33;;
33188;SDS011;52601;53.070;10.600;2023-08-21T08:43:31;2.78;;;1.25;;
33188;SDS011;52601;53.070;10.600;2023-08-21T08:46:21;2.95;;;1.15;;
33188;SDS011;52601;53.070;10.600;2023-08-21T08:49:09;4.63;;;1.52;;
33188;SDS011;52601;53.070;10.600;2023-08-21T08:57:26;5.28;;;1.40;;
33188;SDS011;52601;53.070;10.600;2023-08-21T09:00:12;3.83;;;1.30;;
33188;SDS011;52601;53.070;10.600;2023-08-21T09:02:58;2.63;;;1.10;;
33188;SDS011;52601;53.070;10.600;2023-08-21T09:05:44;4.05;;;1.45;;
33188;SDS011;52601;53.070;10.600;2023-08-21T09:08:29;4.05;;;1.23;;
33188;SDS011;52601;53.070;10.600;2023-08-21T09:14:03;4.00;;;1.25;;
33188;SDS011;52601;53.070;10.600;2023-08-21T09:17:00;6.53;;;1.20;;
33188;SDS011;52601;53.070;10.600;2023-08-21T09:19:49;4.28;;;1.13;;
33188;SDS011;52601;53.070;10.600;2023-08-21T09:22:35;1.60;;;0.80;;
33188;SDS011;52601;53.070;10.600;2023-08-21T09:25:21;2.83;;;1.13;;
33188;SDS011;52601;53.070;10.600;2023-08-21T09:28:09;7.93;;;1.40;;
33188;SDS011;52601;53.070;10.600;2023-08-21T09:30:55;3.63;;;1.13;;
33188;SDS011;52601;53.070;10.600;2023-08-21T09:33:41;3.08;;;1.15;;
33188;SDS011;52601;53.070;10.600;2023-08-21T09:39:15;7.70;;;1.17;;
33188;SDS011;52601;53.070;10.600;2023-08-21T09:42:06;2.97;;;1.00;;
33188;SDS011;52601;53.070;10.600;2023-08-21T09:44:52;1.40;;;0.90;;
33188;SDS011;52601;53.070;10.600;2023-08-21T09:47:38;2.25;;;1.00;;
33188;SDS011;52601;53.070;10.600;2023-08-21T09:50:26;2.38;;;0.82;;
33188;SDS011;52601;53.070;10.600;2023-08-21T09:53:13;3.15;;;0.90;;
33188;SDS011;52601;53.070;10.600;2023-08-21T09:56:00;3.72;;;0.95;;
33188;SDS011;52601;53.070;10.600;2023-08-21T09:58:49;2.20;;;0.75;;
33188;SDS011;52601;53.070;10.600;2023-08-21T10:01:36;1.30;;;0.70;;
33188;SDS011;52601;53.070;10.600;2023-08-21T10:04:23;2.20;;;0.80;;
33188;SDS011;52601;53.070;10.600;2023-08-21T10:07:10;3.20;;;1.02;;
33188;SDS011;52601;53.070;10.600;2023-08-21T10:09:57;6.85;;;1.13;;
33188;SDS011;52601;53.070;10.600;2023-08-21T10:12:44;3.67;;;1.00;;
33188;SDS011;52601;53.070;10.600;2023-08-21T10:15:30;2.30;;;0.90;;
33188;SDS011;52601;53.070;10.600;2023-08-21T10:18:21;1.92;;;0.63;;
33188;SDS011;52601;53.070;10.600;2023-08-21T10:23:57;3.00;;;1.00;;
33188;SDS011;52601;53.070;10.600;2023-08-21T10:26:45;1.38;;;0.63;;
33188;SDS011;52601;53.070;10.600;2023-08-21T10:29:32;2.25;;;0.70;;
33188;SDS011;52601;53.070;10.600;2023-08-21T10:35:08;2.22;;;0.90;;
33188;SDS011;52601;53.070;10.600;2023-08-21T10:38:16;3.90;;;0.90;;
33188;SDS011;52601;53.070;10.600;2023-08-21T10:41:05;2.38;;;0.75;;
33188;SDS011;52601;53.070;10.600;2023-08-21T10:43:52;3.13;;;0.98;;
33188;SDS011;52601;53.070;10.600;2023-08-21T10:46:49;2.33;;;0.88;;
33188;SDS011;52601;53.070;10.600;2023-08-21T10:49:35;2.55;;;1.10;;
33188;SDS011;52601;53.070;10.600;2023-08-21T10:52:22;1.48;;;0.70;;
33188;SDS011;52601;53.070;10.600;2023-08-21T10:55:09;4.95;;;1.38;;
33188;SDS011;52601;53.070;10.600;2023-08-21T10:57:56;1.15;;;0.57;;
33188;SDS011;52601;53.070;10.600;2023-08-21T11:00:41;1.45;;;0.73;;
33188;SDS011;52601;53.070;10.600;2023-08-21T11:03:27;3.08;;;0.90;;
33188;SDS011;52601;53.070;10.600;2023-08-21T11:06:13;1.23;;;0.60;;
33188;SDS011;52601;53.070;10.600;2023-08-21T11:08:58;2.30;;;0.60;;
33188;SDS011;52601;53.070;10.600;2023-08-21T11:11:44;4.88;;;0.98;;
33188;SDS011;52601;53.070;10.600;2023-08-21T11:14:29;1.63;;;0.80;;
33188;SDS011;52601;53.070;10.600;2023-08-21T11:17:15;2.47;;;0.90;;
33188;SDS011;52601;53.070;10.600;2023-08-21T11:20:04;1.58;;;0.80;;
33188;SDS011;52601;53.070;10.600;2023-08-21T11:22:55;1.33;;;0.77;;
33188;SDS011;52601;53.070;10.600;2023-08-21T11:25:42;2.38;;;0.70;;
33188;SDS011;52601;53.070;10.600;2023-08-21T11:28:28;1.80;;;0.93;;
33188;SDS011;52601;53.070;10.600;2023-08-21T11:31:15;2.33;;;0.77;;
33188;SDS011;52601;53.070;10.600;2023-08-21T11:34:01;1.40;;;0.70;;
33188;SDS011;52601;53.070;10.600;2023-08-21T11:37:06;0.75;;;0.52;;
33188;SDS011;52601;53.070;10.600;2023-08-21T11:39:53;4.32;;;0.88;;
33188;SDS011;52601;53.070;10.600;2023-08-21T11:42:39;2.70;;;0.60;;
33188;SDS011;52601;53.070;10.600;2023-08-21T11:45:25;3.78;;;0.80;;
33188;SDS011;52601;53.070;10.600;2023-08-21T11:50:58;2.72;;;0.90;;
33188;SDS011;52601;53.070;10.600;2023-08-21T11:53:44;2.40;;;0.60;;
33188;SDS011;52601;53.070;10.600;2023-08-21T11:56:33;2.60;;;1.20;;
33188;SDS011;52601;53.070;10.600;2023-08-21T11:59:22;3.78;;;0.75;;
33188;SDS011;52601;53.070;10.600;2023-08-21T12:02:09;3.67;;;0.75;;
33188;SDS011;52601;53.070;10.600;2023-08-21T12:05:03;1.30;;;0.80;;
33188;SDS011;52601;53.070;10.600;2023-08-21T12:07:50;2.13;;;1.10;;
33188;SDS011;52601;53.070;10.600;2023-08-21T12:10:36;1.92;;;0.75;;
33188;SDS011;52601;53.070;10.600;2023-08-21T12:13:25;1.95;;;0.63;;
33188;SDS011;52601;53.070;10.600;2023-08-21T12:16:14;5.22;;;1.58;;
33188;SDS011;52601;53.070;10.600;2023-08-21T12:19:00;2.35;;;0.80;;
33188;SDS011;52601;53.070;10.600;2023-08-21T12:21:48;1.42;;;0.70;;
33188;SDS011;52601;53.070;10.600;2023-08-21T12:24:33;3.17;;;1.00;;
33188;SDS011;52601;53.070;10.600;2023-08-21T12:27:19;1.08;;;0.65;;
33188;SDS011;52601;53.070;10.600;2023-08-21T12:30:07;4.95;;;1.00;;
33188;SDS011;52601;53.070;10.600;2023-08-21T12:32:53;3.05;;;0.95;;
33188;SDS011;52601;53.070;10.600;2023-08-21T12:35:39;3.03;;;0.93;;
33188;SDS011;52601;53.070;10.600;2023-08-21T12:38:24;2.75;;;0.82;;
33188;SDS011;52601;53.070;10.600;2023-08-21T12:41:14;3.75;;;0.70;;
33188;SDS011;52601;53.070;10.600;2023-08-21T12:46:47;3.15;;;0.80;;
33188;SDS011;52601;53.070;10.600;2023-08-21T12:49:33;2.30;;;0.90;;
33188;SDS011;52601;53.070;10.600;2023-08-21T12:52:20;2.38;;;0.82;;
33188;SDS011;52601;53.070;10.600;2023-08-21T12:55:06;1.95;;;0.70;;
33188;SDS011;52601;53.070;10.600;2023-08-21T12:57:52;1.85;;;0.80;;
33188;SDS011;52601;53.070;10.600;2023-08-21T13:00:38;1.20;;;0.60;;
33188;SDS011;52601;53.070;10.600;2023-08-21T13:03:24;3.10;;;0.60;;
33188;SDS011;52601;53.070;10.600;2023-08-21T13:06:12;1.98;;;0.95;;
33188;SDS011;52601;53.070;10.600;2023-08-21T13:08:58;2.35;;;0.80;;
33188;SDS011;52601;53.070;10.600;2023-08-21T13:11:44;1.83;;;0.80;;
33188;SDS011;52601;53.070;10.600;2023-08-21T13:14:29;2.85;;;0.80;;
33188;SDS011;52601;53.070;10.600;2023-08-21T13:17:17;3.85;;;1.02;;
33188;SDS011;52601;53.070;10.600;2023-08-21T13:20:03;8.32;;;1.40;;
33188;SDS011;52601;53.070;10.600;2023-08-21T13:22:50;3.78;;;0.90;;
33188;SDS011;52601;53.070;10.600;2023-08-21T13:25:36;1.30;;;0.60;;
33188;SDS011;52601;53.070;10.600;2023-08-21T13:28:22;2.05;;;0.80;;
33188;SDS011;52601;53.070;10.600;2023-08-21T13:31:08;1.70;;;0.73;;
33188;SDS011;52601;53.070;10.600;2023-08-21T13:33:55;2.15;;;1.05;;
33188;SDS011;52601;53.070;10.600;2023-08-21T13:36:41;1.58;;;0.63;;
33188;SDS011;52601;53.070;10.600;2023-08-21T13:39:27;2.10;;;0.80;;
33188;SDS011;52601;53.070;10.600;2023-08-21T13:42:12;3.55;;;0.95;;
33188;SDS011;52601;53.070;10.600;2023-08-21T13:44:57;1.27;;;0.80;;
33188;SDS011;52601;53.070;10.600;2023-08-21T13:50:31;7.43;;;0.90;;
33188;SDS011;52601;53.070;10.600;2023-08-21T13:56:02;2.23;;;0.80;;
33188;SDS011;52601;53.070;10.600;2023-08-21T13:58:48;1.77;;;0.70;;
33188;SDS011;52601;53.070;10.600;2023-08-21T14:04:19;2.88;;;0.57;;
33188;SDS011;52601;53.070;10.600;2023-08-21T14:07:04;2.17;;;0.75;;
33188;SDS011;52601;53.070;10.600;2023-08-21T14:12:35;0.80;;;0.70;;
33188;SDS011;52601;53.070;10.600;2023-08-21T14:15:24;1.73;;;0.80;;
33188;SDS011;52601;53.070;10.600;2023-08-21T14:20:55;3.05;;;0.93;;
33188;SDS011;52601;53.070;10.600;2023-08-21T14:23:41;1.10;;;0.88;;
33188;SDS011;52601;53.070;10.600;2023-08-21T14:26:26;18.15;;;1.75;;
33188;SDS011;52601;53.070;10.600;2023-08-21T14:32:00;1.23;;;0.57;;
33188;SDS011;52601;53.070;10.600;2023-08-21T14:34:45;1.30;;;0.70;;
33188;SDS011;52601;53.070;10.600;2023-08-21T14:37:32;0.95;;;0.57;;
33188;SDS011;52601;53.070;10.600;2023-08-21T14:40:17;0.73;;;0.55;;
33188;SDS011;52601;53.070;10.600;2023-08-21T14:43:03;2.42;;;0.90;;
33188;SDS011;52601;53.070;10.600;2023-08-21T14:45:49;1.23;;;0.70;;
33188;SDS011;52601;53.070;10.600;2023-08-21T14:48:35;2.15;;;0.52;;
33188;SDS011;52601;53.070;10.600;2023-08-21T14:51:20;2.22;;;0.85;;
33188;SDS011;52601;53.070;10.600;2023-08-21T14:54:06;0.77;;;0.60;;
33188;SDS011;52601;53.070;10.600;2023-08-21T14:56:51;0.90;;;0.65;;
33188;SDS011;52601;53.070;10.600;2023-08-21T14:59:38;1.23;;;0.60;;
33188;SDS011;52601;53.070;10.600;2023-08-21T15:05:09;1.48;;;0.57;;
33188;SDS011;52601;53.070;10.600;2023-08-21T15:07:55;1.00;;;0.60;;
33188;SDS011;52601;53.070;10.600;2023-08-21T15:10:41;0.80;;;0.68;;
33188;SDS011;52601;53.070;10.600;2023-08-21T15:13:26;2.55;;;0.85;;
33188;SDS011;52601;53.070;10.600;2023-08-21T15:16:12;0.70;;;0.60;;
33188;SDS011;52601;53.070;10.600;2023-08-21T15:18:57;1.20;;;0.70;;
33188;SDS011;52601;53.070;10.600;2023-08-21T15:21:44;5.20;;;0.70;;
33188;SDS011;52601;53.070;10.600;2023-08-21T15:24:29;0.85;;;0.50;;
33188;SDS011;52601;53.070;10.600;2023-08-21T15:27:15;1.70;;;0.82;;
33188;SDS011;52601;53.070;10.600;2023-08-21T15:30:02;2.13;;;0.50;;
33188;SDS011;52601;53.070;10.600;2023-08-21T15:32:48;1.58;;;0.70;;
33188;SDS011;52601;53.070;10.600;2023-08-21T15:35:33;1.50;;;0.80;;
33188;SDS011;52601;53.070;10.600;2023-08-21T15:38:19;0.88;;;0.63;;
33188;SDS011;52601;53.070;10.600;2023-08-21T15:41:04;1.15;;;0.60;;
33188;SDS011;52601;53.070;10.600;2023-08-21T15:43:50;9.05;;;0.95;;
33188;SDS011;52601;53.070;10.600;2023-08-21T15:46:37;2.47;;;0.82;;
33188;SDS011;52601;53.070;10.600;2023-08-21T15:49:22;1.60;;;0.93;;
33188;SDS011;52601;53.070;10.600;2023-08-21T15:52:08;3.78;;;1.00;;
33188;SDS011;52601;53.070;10.600;2023-08-21T15:54:54;1.48;;;0.82;;
33188;SDS011;52601;53.070;10.600;2023-08-21T15:57:39;3.03;;;1.05;;
33188;SDS011;52601;53.070;10.600;2023-08-21T16:00:24;2.63;;;0.98;;
33188;SDS011;52601;53.070;10.600;2023-08-21T16:03:10;2.22;;;0.93;;
33188;SDS011;52601;53.070;10.600;2023-08-21T16:05:55;1.98;;;0.77;;
33188;SDS011;52601;53.070;10.600;2023-08-21T16:08:41;5.72;;;1.50;;
33188;SDS011;52601;53.070;10.600;2023-08-21T16:11:26;2.70;;;1.15;;
33188;SDS011;52601;53.070;10.600;2023-08-21T16:14:12;4.15;;;0.93;;
33188;SDS011;52601;53.070;10.600;2023-08-21T16:16:58;1.88;;;0.73;;
33188;SDS011;52601;53.070;10.600;2023-08-21T16:19:44;2.95;;;1.00;;
33188;SDS011;52601;53.070;10.600;2023-08-21T16:22:30;2.75;;;1.45;;
33188;SDS011;52601;53.070;10.600;2023-08-21T16:25:16;2.40;;;0.88;;
33188;SDS011;52601;53.070;10.600;2023-08-21T16:28:02;2.40;;;1.07;;
33188;SDS011;52601;53.070;10.600;2023-08-21T16:30:47;7.32;;;1.17;;
33188;SDS011;52601;53.070;10.600;2023-08-21T16:33:33;1.15;;;0.82;;
33188;SDS011;52601;53.070;10.600;2023-08-21T16:36:20;2.42;;;0.90;;
33188;SDS011;52601;53.070;10.600;2023-08-21T16:39:06;1.90;;;0.98;;
33188;SDS011;52601;53.070;10.600;2023-08-21T16:41:52;4.30;;;1.30;;
33188;SDS011;52601;53.070;10.600;2023-08-21T16:44:37;9.40;;;1.40;;
33188;SDS011;52601;53.070;10.600;2023-08-21T16:47:23;2.75;;;1.40;;
33188;SDS011;52601;53.070;10.600;2023-08-21T16:50:08;2.30;;;0.88;;
33188;SDS011;52601;53.070;10.600;2023-08-21T16:52:54;6.83;;;1.47;;
33188;SDS011;52601;53.070;10.600;2023-08-21T16:55:39;6.97;;;1.00;;
33188;SDS011;52601;53.070;10.600;2023-08-21T16:58:25;6.50;;;1.17;;
33188;SDS011;52601;53.070;10.600;2023-08-21T17:01:10;2.83;;;0.90;;
33188;SDS011;52601;53.070;10.600;2023-08-21T17:03:56;3.10;;;1.05;;
33188;SDS011;52601;53.070;10.600;2023-08-21T17:06:42;1.95;;;0.82;;
33188;SDS011;52601;53.070;10.600;2023-08-21T17:09:27;1.77;;;0.73;;
33188;SDS011;52601;53.070;10.600;2023-08-21T17:12:14;9.45;;;1.50;;
33188;SDS011;52601;53.070;10.600;2023-08-21T17:15:01;3.50;;;1.48;;
33188;SDS011;52601;53.070;10.600;2023-08-21T17:17:47;4.07;;;1.23;;
33188;SDS011;52601;53.070;10.600;2023-08-21T17:20:33;5.45;;;0.98;;
33188;SDS011;52601;53.070;10.600;2023-08-21T17:23:19;5.00;;;1.02;;
33188;SDS011;52601;53.070;10.600;2023-08-21T17:26:04;2.95;;;1.00;;